Time;durP1;ratioP1;P1;durP2;ratioP2;P2;SDS_P1;SDS_P2;PMS_P1;PMS_P2;Temp;Humidity;BMP_temperature;BMP_pressure;BME280_temperature;BME280_humidity;BME280_pressure;Samples;Min_cycle;Max_cycle;Signal;HPM_P1;HPM_P2
2024/03/06 00:02:24;;;;;;;2.90;2.33;;;7.80;67.50;;;2.93;100.00;95466.28;4990889;28;20033;-51
2024/03/06 00:04:50;;;;;;;6.10;2.90;;;7.80;67.60;;;2.99;100.00;95471.47;4993763;28;20372;-50
2024/03/06 00:07:16;;;;;;;3.08;2.30;;;7.70;67.50;;;2.98;100.00;95469.09;4985026;28;20483;-52
2024/03/06 00:09:42;;;;;;;2.58;2.38;;;7.70;67.60;;;2.95;100.00;95478.22;4971127;28;20017;-49
2024/03/06 00:12:08;;;;;;;2.90;2.50;;;7.70;67.60;;;2.98;100.00;95484.88;4986932;28;20072;-49
2024/03/06 00:14:36;;;;;;;4.72;2.15;;;7.70;67.80;;;2.90;100.00;95487.78;4992726;28;20018;-51
2024/03/06 00:17:04;;;;;;;3.10;2.30;;;7.70;67.80;;;2.92;100.00;95488.38;4993115;28;20060;-51
2024/03/06 00:19:30;;;;;;;3.15;2.53;;;7.60;67.80;;;2.92;100.00;95488.38;4991457;28;20392;-51
2024/03/06 00:21:56;;;;;;;3.95;2.30;;;7.60;67.90;;;2.88;100.00;95485.34;4987297;28;20041;-52
2024/03/06 00:24:22;;;;;;;2.55;2.22;;;7.60;67.90;;;2.87;100.00;95486.38;4987674;28;20020;-53
2024/03/06 00:26:49;;;;;;;2.72;2.13;;;7.60;68.00;;;2.89;100.00;95494.06;4990993;28;20179;-49
2024/03/06 00:29:15;;;;;;;2.75;2.38;;;7.60;68.10;;;2.90;100.00;95495.69;4986594;28;20021;-48
2024/03/06 00:31:46;;;;;;;3.55;2.15;;;7.50;68.10;;;2.88;100.00;95489.81;4990604;28;20056;-48
2024/03/06 00:34:16;;;;;;;3.33;2.15;;;7.50;68.20;;;2.81;100.00;95491.72;4986430;28;20492;-52
2024/03/06 00:36:43;;;;;;;3.25;2.15;;;7.50;68.10;;;2.78;100.00;95491.13;4991334;28;20044;-50
2024/03/06 00:39:10;;;;;;;2.60;2.15;;;7.50;68.20;;;2.75;100.00;95496.81;4971574;28;20034;-51
2024/03/06 00:41:36;;;;;;;4.40;2.50;;;7.50;68.20;;;2.70;100.00;95495.88;4986949;28;20033;-49
2024/03/06 00:44:05;;;;;;;4.10;2.55;;;7.50;68.30;;;2.72;100.00;95499.88;4989198;28;20152;-49
2024/03/06 00:46:31;;;;;;;3.67;2.65;;;7.50;68.40;;;2.72;100.00;95491.19;4987853;28;20053;-50
2024/03/06 00:48:57;;;;;;;3.58;2.95;;;7.40;68.40;;;2.68;100.00;95495.28;4992232;28;20049;-51
2024/03/06 00:51:23;;;;;;;3.90;2.53;;;7.40;68.40;;;2.70;100.00;95494.06;4967857;28;20030;-49
2024/03/06 00:53:49;;;;;;;4.78;2.60;;;7.40;68.50;;;2.75;100.00;95498.66;4985858;28;20089;-52
2024/03/06 00:56:15;;;;;;;4.13;2.78;;;7.40;68.60;;;2.72;100.00;95496.44;4989697;28;20029;-52
2024/03/06 00:58:40;;;;;;;3.83;2.65;;;7.40;68.60;;;2.68;100.00;95503.19;4988876;28;20022;-49
2024/03/06 01:01:06;;;;;;;3.53;2.80;;;7.40;68.70;;;2.60;100.00;95501.63;4987783;28;20558;-55
2024/03/06 01:03:32;;;;;;;3.08;2.40;;;7.40;68.60;;;2.58;100.00;95514.19;4991816;28;20022;-54
2024/03/06 01:05:58;;;;;;;2.83;2.47;;;7.40;68.60;;;2.53;100.00;95509.56;4984682;28;20440;-49
2024/03/06 01:08:24;;;;;;;2.90;2.30;;;7.40;68.70;;;2.54;100.00;95520.91;4983507;28;20124;-52
2024/03/06 01:10:54;;;;;;;3.10;2.20;;;7.30;68.70;;;2.46;100.00;95514.06;4990991;28;20021;-54
2024/03/06 01:13:21;;;;;;;4.20;2.40;;;7.30;68.90;;;2.42;100.00;95520.78;4986028;28;20033;-52
2024/03/06 01:15:46;;;;;;;5.68;2.40;;;7.30;68.80;;;2.44;100.00;95525.81;4991473;28;20026;-51
2024/03/06 01:18:13;;;;;;;2.97;2.10;;;7.30;68.80;;;2.43;100.00;95518.97;4988859;28;20026;-55
2024/03/06 01:20:40;;;;;;;4.60;2.47;;;7.30;68.90;;;2.45;100.00;95517.75;4987129;28;20049;-52
2024/03/06 01:23:06;;;;;;;2.90;2.20;;;7.20;68.90;;;2.38;100.00;95513.53;4962715;28;20046;-51
2024/03/06 01:25:32;;;;;;;3.10;2.40;;;7.20;68.90;;;2.42;100.00;95515.53;4971383;28;20021;-50
2024/03/06 01:27:58;;;;;;;2.75;2.20;;;7.20;68.90;;;2.37;100.00;95525.88;4974735;28;20038;-51
2024/03/06 01:30:24;;;;;;;2.95;2.22;;;7.20;68.90;;;2.33;100.00;95527.34;4976285;28;20023;-55
2024/03/06 01:32:49;;;;;;;4.10;2.47;;;7.20;68.90;;;2.24;100.00;95526.78;4973245;28;20025;-54
2024/03/06 01:35:16;;;;;;;3.50;2.35;;;7.10;68.80;;;2.24;100.00;95512.84;4974418;28;20019;-53
2024/03/06 01:37:42;;;;;;;3.08;2.08;;;7.10;68.70;;;2.18;100.00;95518.97;4973242;28;20030;-53
2024/03/06 01:40:09;;;;;;;3.50;1.92;;;7.10;68.70;;;2.11;100.00;95512.94;4973120;28;20482;-53
2024/03/06 01:42:35;;;;;;;3.15;2.03;;;7.10;68.80;;;2.05;100.00;95520.66;4976913;28;20034;-55
2024/03/06 01:45:03;;;;;;;3.50;2.38;;;7.00;68.70;;;2.02;100.00;95521.06;4976338;28;20029;-50
2024/03/06 01:47:29;;;;;;;5.43;2.50;;;6.90;68.70;;;2.01;100.00;95530.00;4977266;28;20041;-49
2024/03/06 01:49:55;;;;;;;2.25;1.77;;;7.00;68.80;;;1.96;100.00;95521.13;4969340;28;20374;-50
2024/03/06 01:52:23;;;;;;;2.60;2.22;;;6.90;68.80;;;1.98;100.00;95529.59;4956976;28;20106;-51
2024/03/06 01:54:51;;;;;;;10.20;2.40;;;6.90;68.80;;;1.96;100.00;95529.00;4969502;28;20096;-50
2024/03/06 01:57:20;;;;;;;3.70;1.85;;;6.80;68.80;;;1.93;100.00;95526.81;4978833;28;20026;-55
2024/03/06 01:59:47;;;;;;;2.30;1.88;;;6.80;68.80;;;1.87;100.00;95522.38;4970991;28;20026;-51
2024/03/06 02:02:13;;;;;;;3.10;1.83;;;6.80;68.80;;;1.76;100.00;95524.69;4963841;28;20021;-51
2024/03/06 02:04:39;;;;;;;3.10;2.10;;;6.80;68.80;;;1.74;100.00;95513.56;4971282;28;20037;-53
2024/03/06 02:07:13;;;;;;;2.35;1.95;;;6.80;68.80;;;1.76;100.00;95511.53;4966136;28;20049;-52
2024/03/06 02:09:40;;;;;;;2.80;2.20;;;6.70;68.90;;;1.73;100.00;95517.22;4970872;28;20037;-51
2024/03/06 02:12:08;;;;;;;3.50;2.35;;;6.70;68.90;;;1.68;100.00;95521.47;4974045;28;20365;-51
2024/03/06 02:14:36;;;;;;;2.15;1.90;;;6.60;68.90;;;1.66;100.00;95520.88;4971470;28;20036;-50
2024/03/06 02:17:02;;;;;;;1.88;1.52;;;6.60;69.50;;;1.59;100.00;95520.91;4953582;28;20051;-53
2024/03/06 02:19:44;;;;;;;3.05;2.13;;;6.60;68.90;;;1.48;100.00;95522.41;4974408;28;20485;-50
2024/03/06 02:22:11;;;;;;;4.97;2.05;;;6.50;68.80;;;1.48;100.00;95516.34;4995573;23;20045;-50
2024/03/06 02:24:44;;;;;;;3.45;2.40;;;6.50;68.90;;;1.42;100.00;95514.53;4989957;28;20121;-51
2024/03/06 02:27:10;;;;;;;4.03;2.67;;;6.40;68.90;;;1.46;100.00;95518.34;4977944;28;20037;-51
2024/03/06 02:29:38;;;;;;;4.80;2.75;;;6.40;68.90;;;1.47;100.00;95525.22;4990206;28;20030;-50
2024/03/06 02:32:04;;;;;;;3.85;2.35;;;6.40;69.00;;;1.52;100.00;95534.06;4986550;28;20095;-52
2024/03/06 02:34:30;;;;;;;3.60;2.70;;;6.40;69.00;;;1.56;100.00;95532.63;4981786;28;20030;-51
2024/03/06 02:36:56;;;;;;;4.03;2.70;;;6.40;69.10;;;1.55;100.00;95531.03;4985816;28;20502;-51
2024/03/06 02:39:22;;;;;;;5.78;2.85;;;6.40;69.10;;;1.50;100.00;95528.22;4980176;28;20036;-50
2024/03/06 02:41:48;;;;;;;2.72;2.20;;;6.40;69.00;;;1.46;100.00;95526.22;4982997;28;20033;-52
2024/03/06 02:44:16;;;;;;;7.93;2.33;;;6.40;68.90;;;1.39;100.00;95534.13;4984950;28;20029;-52
2024/03/06 02:46:45;;;;;;;3.40;2.20;;;6.30;68.80;;;1.29;100.00;95531.97;4984703;28;20030;-50
2024/03/06 02:49:11;;;;;;;3.25;2.35;;;6.30;68.70;;;1.25;100.00;95548.31;4968154;28;20443;-51
2024/03/06 02:51:37;;;;;;;10.32;2.90;;;6.20;68.60;;;1.21;100.00;95544.50;4981796;28;20021;-53
2024/03/06 02:54:03;;;;;;;4.22;2.92;;;6.20;68.60;;;1.15;100.00;95535.63;4990400;28;20057;-52
2024/03/06 02:56:28;;;;;;;6.07;2.53;;;6.20;68.60;;;1.11;100.00;95537.06;4981938;28;20075;-50
2024/03/06 02:58:54;;;;;;;14.30;2.58;;;6.20;68.60;;;1.05;100.00;95543.13;4985296;28;20045;-51
2024/03/06 03:01:20;;;;;;;16.33;2.45;;;6.10;68.40;;;1.02;100.00;95541.72;4984306;28;20030;-51
2024/03/06 03:03:47;;;;;;;10.65;2.40;;;6.10;68.30;;;0.97;100.00;95544.13;4983822;28;20450;-50
2024/03/06 03:06:13;;;;;;;2.80;2.00;;;6.10;68.30;;;0.93;100.00;95538.50;4984945;28;20034;-50
2024/03/06 03:08:39;;;;;;;30.92;2.92;;;6.00;68.30;;;0.86;100.00;95537.72;4987103;28;20212;-51
2024/03/06 03:11:05;;;;;;;3.15;2.10;;;6.00;68.30;;;0.81;100.00;95539.31;4987609;28;20029;-51
2024/03/06 03:13:31;;;;;;;18.52;2.53;;;6.00;68.30;;;0.79;100.00;95539.53;4979959;28;20032;-50
2024/03/06 03:15:58;;;;;;;4.65;2.05;;;5.90;68.20;;;0.75;100.00;95540.16;4989822;28;20037;-51
2024/03/06 03:18:23;;;;;;;57.53;4.15;;;5.90;68.30;;;0.73;100.00;95539.56;4987734;28;20461;-51
2024/03/06 03:20:49;;;;;;;7.43;2.10;;;5.90;68.20;;;0.72;100.00;95541.34;4981080;28;20044;-50
2024/03/06 03:23:21;;;;;;;2.55;1.92;;;5.80;68.20;;;0.66;100.00;95540.38;4984170;28;20108;-50
2024/03/06 03:25:51;;;;;;;6.50;2.10;;;5.80;68.20;;;0.61;100.00;95539.38;4978027;28;20056;-52
2024/03/06 03:28:16;;;;;;;8.95;2.17;;;5.80;68.20;;;0.61;100.00;95542.00;4986229;28;20511;-56
2024/03/06 03:30:45;;;;;;;3.08;2.35;;;5.80;68.30;;;0.60;100.00;95535.94;4984213;28;20021;-54
2024/03/06 03:33:11;;;;;;;9.48;2.60;;;5.80;68.30;;;0.62;100.00;95538.34;4984355;28;20021;-54
2024/03/06 03:35:37;;;;;;;28.60;2.95;;;5.70;68.30;;;0.59;100.00;95531.69;4980253;28;20026;-51
2024/03/06 03:38:04;;;;;;;66.60;4.32;;;5.70;68.30;;;0.59;100.00;95531.69;4981522;28;20014;-53
2024/03/06 03:40:30;;;;;;;7.72;2.20;;;5.70;68.40;;;0.57;100.00;95538.16;4986048;28;20519;-52
2024/03/06 03:42:55;;;;;;;4.25;2.13;;;5.70;68.40;;;0.53;100.00;95539.56;4969020;28;20438;-52
2024/03/06 03:45:21;;;;;;;9.10;2.20;;;5.70;68.40;;;0.51;100.00;95546.84;4986976;28;20117;-51
2024/03/06 03:47:47;;;;;;;3.50;2.25;;;5.70;68.40;;;0.48;100.00;95555.91;4985905;28;20424;-54
2024/03/06 03:50:13;;;;;;;41.97;3.65;;;5.70;68.40;;;0.45;100.00;95553.69;4987647;28;20056;-54
2024/03/06 03:52:41;;;;;;;14.48;2.53;;;5.70;68.40;;;0.43;100.00;95556.50;4981680;28;20019;-54
2024/03/06 03:55:08;;;;;;;8.93;2.60;;;5.70;68.40;;;0.43;100.00;95559.13;4982660;28;20034;-52
2024/03/06 03:57:34;;;;;;;4.93;2.50;;;5.70;68.40;;;0.42;100.00;95560.13;4985890;28;20433;-54
2024/03/06 04:00:00;;;;;;;80.90;5.63;;;5.60;68.30;;;0.42;100.00;95556.72;4985210;28;20056;-56
2024/03/06 04:02:26;;;;;;;3.90;2.45;;;5.60;68.30;;;0.42;100.00;95554.88;4987498;28;20094;-56
2024/03/06 04:04:52;;;;;;;5.38;2.60;;;5.60;68.30;;;0.37;100.00;95552.06;4984931;28;20614;-54
2024/03/06 04:07:18;;;;;;;5.45;2.72;;;5.60;68.30;;;0.37;100.00;95559.91;4983021;28;20042;-56
2024/03/06 04:09:44;;;;;;;4.88;2.60;;;5.60;68.30;;;0.32;100.00;95554.50;4985374;28;20041;-56
2024/03/06 04:12:10;;;;;;;5.22;2.60;;;5.50;68.30;;;0.28;100.00;95558.50;4983674;28;20019;-54
2024/03/06 04:14:36;;;;;;;13.63;2.88;;;5.50;68.30;;;0.30;100.00;95553.88;4991197;28;20340;-55
2024/03/06 04:17:03;;;;;;;39.45;3.20;;;5.50;68.30;;;0.29;100.00;95556.72;4989228;28;20034;-53
2024/03/06 04:19:30;;;;;;;25.42;3.33;;;5.50;68.40;;;0.28;100.00;95568.19;4985593;28;20546;-51
2024/03/06 04:21:56;;;;;;;3.45;2.33;;;5.50;68.40;;;0.28;100.00;95568.97;4989013;28;20045;-55
2024/03/06 04:24:22;;;;;;;4.18;1.90;;;5.50;68.40;;;0.30;100.00;95569.59;4986016;28;20809;-52
2024/03/06 04:26:47;;;;;;;3.97;2.15;;;5.50;68.50;;;0.30;100.00;95574.84;4986085;28;20108;-53
2024/03/06 04:29:13;;;;;;;2.85;2.00;;;5.50;68.40;;;0.30;100.00;95574.03;4986012;28;20044;-53
2024/03/06 04:31:39;;;;;;;3.63;2.00;;;5.50;68.50;;;0.31;100.00;95583.50;4987955;28;20030;-54
2024/03/06 04:34:06;;;;;;;3.92;2.50;;;5.50;68.50;;;0.31;100.00;95584.31;4987366;28;20424;-50
2024/03/06 04:36:32;;;;;;;6.38;2.13;;;5.50;68.40;;;0.32;100.00;95574.66;4983891;28;20028;-51
2024/03/06 04:38:58;;;;;;;3.30;2.08;;;5.50;68.40;;;0.32;100.00;95582.50;4989606;28;20037;-52
2024/03/06 04:41:24;;;;;;;4.70;2.40;;;5.50;68.40;;;0.33;100.00;95576.25;4992752;28;20096;-50
2024/03/06 04:43:50;;;;;;;2.95;2.13;;;5.50;68.40;;;0.33;100.00;95579.69;4988453;28;20024;-54
2024/03/06 04:46:16;;;;;;;4.50;2.67;;;5.50;68.40;;;0.30;100.00;95577.47;4990957;28;20041;-50
2024/03/06 04:48:42;;;;;;;3.92;2.47;;;5.50;68.40;;;0.33;100.00;95581.50;4983923;28;20428;-52
2024/03/06 04:51:09;;;;;;;6.20;2.60;;;5.50;68.40;;;0.34;100.00;95580.47;4983531;28;20045;-54
2024/03/06 04:53:36;;;;;;;5.38;2.88;;;5.50;68.40;;;0.31;100.00;95580.88;4990022;28;20029;-55
2024/03/06 04:56:01;;;;;;;7.00;2.75;;;5.50;68.40;;;0.30;100.00;95593.19;4984126;28;20758;-52
2024/03/06 04:58:27;;;;;;;43.08;3.78;;;5.50;68.40;;;0.31;100.00;95589.53;4992068;28;20049;-54
2024/03/06 05:00:53;;;;;;;10.82;3.03;;;5.50;68.40;;;0.31;100.00;95586.94;4988007;28;20033;-54
2024/03/06 05:03:19;;;;;;;6.78;3.10;;;5.50;68.40;;;0.33;100.00;95598.03;4989831;28;20040;-51
2024/03/06 05:05:45;;;;;;;5.05;3.03;;;5.50;68.40;;;0.31;100.00;95604.47;4988747;28;20022;-53
2024/03/06 05:08:11;;;;;;;7.75;3.35;;;5.50;68.40;;;0.29;100.00;95604.69;4989718;28;20495;-52
2024/03/06 05:10:36;;;;;;;6.43;3.08;;;5.50;68.40;;;0.32;100.00;95601.66;4985346;28;20030;-54
2024/03/06 05:13:02;;;;;;;13.52;3.22;;;5.50;68.40;;;0.31;100.00;95607.88;4986453;28;20030;-51
2024/03/06 05:15:28;;;;;;;6.50;3.15;;;5.50;68.40;;;0.28;100.00;95605.66;4987304;28;20088;-54
2024/03/06 05:17:55;;;;;;;7.63;3.03;;;5.50;68.40;;;0.28;100.00;95604.88;4984907;28;20076;-53
2024/03/06 05:20:21;;;;;;;7.07;2.92;;;5.50;68.40;;;0.30;100.00;95616.75;4982933;28;20022;-54
2024/03/06 05:22:47;;;;;;;6.47;3.15;;;5.50;68.50;;;0.29;100.00;95619.59;4988248;28;20042;-53
2024/03/06 05:25:13;;;;;;;16.13;3.65;;;5.50;68.40;;;0.25;100.00;95621.78;4990521;28;20033;-54
2024/03/06 05:27:39;;;;;;;6.22;2.95;;;5.50;69.00;;;0.28;100.00;95620.59;4987764;28;20025;-52
2024/03/06 05:30:06;;;;;;;18.75;4.25;;;5.50;68.40;;;0.27;100.00;95625.03;4992004;28;20468;-52
2024/03/06 05:32:32;;;;;;;22.42;4.32;;;5.50;68.40;;;0.29;100.00;95624.84;4985893;28;20093;-50
2024/03/06 05:34:58;;;;;;;10.35;3.70;;;5.50;68.40;;;0.30;100.00;95624.63;4986907;28;20033;-51
2024/03/06 05:37:23;;;;;;;8.40;3.67;;;5.50;68.40;;;0.30;100.00;95619.38;4985401;28;20341;-54
2024/03/06 05:39:49;;;;;;;47.70;5.25;;;5.50;68.40;;;0.29;100.00;95622.22;4990910;28;20043;-54
2024/03/06 05:42:15;;;;;;;8.20;4.00;;;5.50;68.40;;;0.30;100.00;95629.06;4984452;28;20029;-52
2024/03/06 05:44:41;;;;;;;8.52;4.03;;;5.50;68.40;;;0.29;100.00;95623.03;4975370;28;20022;-50
2024/03/06 05:47:07;;;;;;;7.13;3.80;;;5.50;68.40;;;0.30;100.00;95631.69;4989888;28;20397;-51
2024/03/06 05:49:34;;;;;;;21.05;4.38;;;5.50;68.40;;;0.29;100.00;95623.03;4970236;28;20468;-52
2024/03/06 05:52:00;;;;;;;8.40;4.18;;;5.50;68.40;;;0.27;100.00;95635.50;4988654;28;20116;-52
2024/03/06 05:54:27;;;;;;;12.10;4.00;;;5.50;68.40;;;0.29;100.00;95637.94;4991116;28;20100;-51
2024/03/06 05:56:53;;;;;;;8.43;3.90;;;5.50;68.40;;;0.26;100.00;95646.19;4987861;28;20073;-51
2024/03/06 05:59:20;;;;;;;10.23;4.07;;;5.50;68.50;;;0.28;100.00;95644.97;4981018;28;20021;-51
2024/03/06 06:01:46;;;;;;;9.05;4.38;;;5.50;68.40;;;0.25;100.00;95645.38;4988386;28;20021;-52
2024/03/06 06:04:15;;;;;;;14.40;4.88;;;5.50;68.40;;;0.25;100.00;95641.94;4988956;28;20025;-51
2024/03/06 06:06:41;;;;;;;20.48;5.18;;;5.50;68.40;;;0.26;100.00;95654.88;4985266;28;20483;-54
2024/03/06 06:09:13;;;;;;;11.88;4.93;;;5.50;68.50;;;0.26;100.00;95651.44;4984736;28;20033;-53
2024/03/06 06:11:39;;;;;;;29.17;5.77;;;5.50;68.40;;;0.23;100.00;95660.50;4986821;28;20033;-52
2024/03/06 06:14:05;;;;;;;29.23;6.07;;;5.50;68.40;;;0.26;100.00;95673.19;4969038;28;20484;-54
2024/03/06 06:16:42;;;;;;;30.95;5.88;;;5.50;68.50;;;0.29;100.00;95669.38;4986793;28;20061;-55
2024/03/06 06:19:08;;;;;;;11.13;5.15;;;5.50;68.50;;;0.31;100.00;95660.28;4984155;28;20089;-53
2024/03/06 06:21:35;;;;;;;11.70;5.10;;;5.50;68.50;;;0.32;100.00;95669.78;4979796;28;20052;-54
2024/03/06 06:24:03;;;;;;;11.80;5.22;;;5.50;68.50;;;0.30;100.00;95668.38;4987087;28;20449;-55
2024/03/06 06:26:30;;;;;;;11.73;5.35;;;5.50;68.50;;;0.28;100.00;95675.59;4969167;28;20029;-53
2024/03/06 06:28:57;;;;;;;12.70;5.43;;;5.60;68.50;;;0.25;100.00;95676.81;4977691;28;20051;-53
2024/03/06 06:31:26;;;;;;;16.63;6.20;;;5.60;68.40;;;0.27;100.00;95684.50;4985045;28;20113;-51
2024/03/06 06:33:53;;;;;;;33.15;7.05;;;5.60;68.40;;;0.25;100.00;95679.44;4980411;28;20390;-53
2024/03/06 06:36:19;;;;;;;17.92;6.30;;;5.60;68.40;;;0.28;100.00;95676.41;4983498;28;20123;-53
2024/03/06 06:38:47;;;;;;;36.95;7.18;;;5.60;68.40;;;0.28;100.00;95684.28;4981760;28;20140;-55
2024/03/06 06:41:15;;;;;;;21.25;6.55;;;5.60;68.30;;;0.30;100.00;95679.66;4981864;28;20113;-50
2024/03/06 06:43:41;;;;;;;19.70;6.18;;;5.60;68.30;;;0.29;100.00;95683.28;4984278;28;20108;-51
2024/03/06 06:46:08;;;;;;;21.13;6.70;;;5.60;68.30;;;0.34;100.00;95686.09;4982070;28;20022;-55
2024/03/06 06:48:34;;;;;;;22.83;6.55;;;5.70;68.30;;;0.34;100.00;95690.53;4982429;28;20021;-52
2024/03/06 06:51:03;;;;;;;15.35;6.25;;;5.70;68.40;;;0.36;100.00;95684.09;4981565;28;20030;-51
2024/03/06 06:53:31;;;;;;;17.52;6.45;;;5.70;69.10;;;0.41;100.00;95686.16;4984669;28;20029;-52
2024/03/06 06:55:58;;;;;;;13.93;6.45;;;5.70;68.30;;;0.43;100.00;95677.06;4981193;28;20033;-53
2024/03/06 06:58:26;;;;;;;15.23;6.57;;;5.80;68.40;;;0.49;100.00;95682.53;4983694;28;20040;-53
2024/03/06 07:00:53;;;;;;;15.20;6.57;;;5.80;68.40;;;0.43;100.00;95679.69;4981113;28;20540;-52
2024/03/06 07:03:21;;;;;;;24.48;7.13;;;5.80;68.40;;;0.44;100.00;95681.31;4988048;28;20403;-54
2024/03/06 07:05:47;;;;;;;19.92;7.18;;;5.90;68.40;;;0.45;100.00;95692.59;4986950;28;21197;-52
2024/03/06 07:08:13;;;;;;;15.07;6.50;;;5.90;68.30;;;0.51;100.00;95683.94;4980323;28;20424;-53
2024/03/06 07:10:39;;;;;;;19.17;7.03;;;5.90;68.30;;;0.54;100.00;95694.03;4982860;28;20018;-53
2024/03/06 07:13:05;;;;;;;20.67;7.72;;;5.90;68.30;;;0.55;100.00;95705.31;4979705;28;20034;-50
2024/03/06 07:15:32;;;;;;;23.83;9.15;;;5.90;68.20;;;0.56;100.00;95699.88;4988800;28;20342;-55
2024/03/06 07:17:58;;;;;;;17.35;7.13;;;6.00;68.30;;;0.55;100.00;95698.25;4989544;28;20052;-53
2024/03/06 07:20:24;;;;;;;24.23;7.88;;;6.00;68.30;;;0.58;100.00;95697.06;4988766;28;20100;-53
2024/03/06 07:22:50;;;;;;;20.48;7.63;;;6.00;68.20;;;0.59;100.00;95696.84;4989317;28;20053;-53
2024/03/06 07:25:16;;;;;;;19.92;7.28;;;6.00;68.20;;;0.61;100.00;95696.66;4988528;28;20029;-51
2024/03/06 07:27:42;;;;;;;44.05;8.23;;;6.00;68.20;;;0.63;100.00;95711.19;4989507;28;20044;-52
2024/03/06 07:30:09;;;;;;;21.67;7.60;;;6.10;68.20;;;0.65;100.00;95708.34;4984374;28;20022;-50
2024/03/06 07:32:35;;;;;;;17.90;7.22;;;6.10;68.20;;;0.63;100.00;95716.44;4989115;28;20424;-50
2024/03/06 07:35:00;;;;;;;18.92;7.05;;;6.10;68.10;;;0.64;100.00;95712.78;4989885;28;20029;-50
2024/03/06 07:37:26;;;;;;;19.48;7.57;;;6.20;68.10;;;0.65;100.00;95714.41;4967172;28;20479;-51
2024/03/06 07:39:52;;;;;;;19.75;8.20;;;6.20;68.00;;;0.64;100.00;95723.28;4987540;28;20036;-51
2024/03/06 07:42:18;;;;;;;21.33;8.13;;;6.20;68.00;;;0.66;100.00;95721.28;4990086;28;20038;-55
2024/03/06 07:44:44;;;;;;;18.13;7.28;;;6.20;68.00;;;0.69;100.00;95722.69;4978200;28;20400;-55
2024/03/06 07:47:10;;;;;;;31.20;7.55;;;6.20;68.00;;;0.73;100.00;95728.34;4993345;28;20053;-52
2024/03/06 07:49:35;;;;;;;14.82;6.90;;;6.20;68.00;;;0.73;100.00;95729.16;4992390;28;20014;-50
2024/03/06 07:52:01;;;;;;;15.05;6.05;;;6.20;68.80;;;0.76;100.00;95722.72;4993572;28;20053;-53
2024/03/06 07:54:27;;;;;;;18.38;6.90;;;6.20;68.00;;;0.77;100.00;95726.94;4993472;28;20084;-50
2024/03/06 07:56:54;;;;;;;36.85;8.70;;;6.20;68.00;;;0.79;100.00;95730.19;4991750;28;20029;-50
2024/03/06 07:59:20;;;;;;;14.50;6.32;;;6.20;68.00;;;0.81;100.00;95731.56;4990464;28;20036;-55
2024/03/06 08:01:46;;;;;;;22.65;7.07;;;6.20;68.00;;;0.77;100.00;95733.00;4989472;28;20029;-52
2024/03/06 08:04:11;;;;;;;17.35;7.20;;;6.30;68.00;;;0.77;100.00;95737.44;4990405;28;20580;-49
2024/03/06 08:06:37;;;;;;;14.95;6.68;;;6.30;68.00;;;0.76;100.00;95738.44;4986839;28;20437;-50
2024/03/06 08:09:05;;;;;;;15.23;6.80;;;6.30;67.90;;;0.80;100.00;95744.91;4988050;28;20079;-50
2024/03/06 08:11:31;;;;;;;15.75;6.70;;;6.30;67.90;;;0.84;100.00;95751.34;4990054;28;20041;-55
2024/03/06 08:14:01;;;;;;;14.38;6.38;;;6.30;67.90;;;0.83;100.00;95745.31;4989169;28;20049;-51
2024/03/06 08:16:28;;;;;;;16.05;6.22;;;6.40;68.00;;;0.85;100.00;95750.38;4985294;28;20087;-52
2024/03/06 08:18:57;;;;;;;11.25;5.90;;;6.40;67.90;;;0.92;100.00;95753.81;4993102;28;20026;-51
2024/03/06 08:21:22;;;;;;;11.93;6.03;;;6.50;68.00;;;0.95;100.00;95756.03;4992227;28;20548;-50
2024/03/06 08:23:49;;;;;;;12.88;5.43;;;6.50;67.90;;;0.93;100.00;95745.72;4973673;28;20066;-54
2024/03/06 08:26:15;;;;;;;11.45;5.70;;;6.50;67.90;;;0.96;100.00;95754.19;4972393;28;20113;-55
2024/03/06 08:28:41;;;;;;;11.32;5.75;;;6.60;67.80;;;0.96;100.00;95756.81;4973018;28;20465;-53
2024/03/06 08:31:08;;;;;;;13.80;5.13;;;6.60;68.50;;;0.99;100.00;95753.81;4972305;28;20519;-54
2024/03/06 08:33:34;;;;;;;9.27;5.00;;;6.60;67.70;;;1.02;100.00;95753.41;4971203;28;20037;-51
2024/03/06 08:36:00;;;;;;;11.30;5.10;;;6.60;67.70;;;1.05;100.00;95753.81;4969041;28;20489;-52
2024/03/06 08:38:25;;;;;;;8.23;4.43;;;6.70;67.80;;;1.03;100.00;95758.44;4972214;28;20033;-55
2024/03/06 08:40:52;;;;;;;10.77;4.90;;;6.70;67.80;;;1.04;100.00;95760.06;4973502;28;20057;-53
2024/03/06 08:43:19;;;;;;;9.45;4.45;;;6.70;67.70;;;1.07;100.00;95761.50;4971958;28;20026;-50
2024/03/06 08:45:45;;;;;;;9.38;4.82;;;6.80;67.60;;;1.08;100.00;95758.66;4972301;28;20018;-55
2024/03/06 08:48:11;;;;;;;14.95;5.88;;;6.80;67.60;;;1.12;100.00;95765.09;4972809;28;20033;-54
2024/03/06 08:50:38;;;;;;;12.07;5.65;;;6.80;67.60;;;1.12;100.00;95766.94;4972178;28;20030;-51
2024/03/06 08:53:04;;;;;;;9.52;4.70;;;6.90;67.60;;;1.15;100.00;95785.69;4971452;28;20448;-54
2024/03/06 08:55:30;;;;;;;11.95;5.22;;;6.80;67.40;;;1.20;100.00;95779.06;4970653;28;20109;-50
2024/03/06 08:57:56;;;;;;;10.35;5.07;;;6.90;67.50;;;1.18;100.00;95779.25;4973001;28;20137;-51
2024/03/06 09:00:22;;;;;;;32.85;5.68;;;6.90;67.50;;;1.19;100.00;95785.31;4969252;28;20562;-52
2024/03/06 09:02:47;;;;;;;8.50;4.30;;;6.90;67.40;;;1.25;100.00;95792.38;4971752;28;20022;-50
2024/03/06 09:05:13;;;;;;;10.63;4.80;;;7.00;67.40;;;1.23;100.00;95799.66;4971653;28;20045;-53
2024/03/06 09:07:43;;;;;;;9.02;4.75;;;7.00;67.30;;;1.22;100.00;95795.41;4971667;28;20030;-53
2024/03/06 09:10:13;;;;;;;10.23;5.13;;;6.90;67.20;;;1.25;100.00;95797.63;4972694;28;20097;-51
2024/03/06 09:12:40;;;;;;;7.65;5.10;;;6.90;67.20;;;1.21;100.00;95801.66;4972290;28;20125;-50
2024/03/06 09:15:11;;;;;;;13.10;4.50;;;6.90;67.20;;;1.21;100.00;95797.22;4971822;28;20022;-55
2024/03/06 09:17:38;;;;;;;12.57;4.72;;;7.00;67.20;;;1.23;100.00;95800.47;4975962;28;20038;-51
2024/03/06 09:20:12;;;;;;;8.55;4.40;;;7.00;67.90;;;1.20;100.00;95810.56;4971563;28;20029;-52
2024/03/06 09:22:40;;;;;;;6.32;3.65;;;7.00;67.00;;;1.16;100.00;95802.28;4969225;28;20406;-52
2024/03/06 09:25:08;;;;;;;6.25;3.03;;;7.00;67.00;;;1.15;100.00;95808.50;4972571;28;20548;-56
2024/03/06 09:27:35;;;;;;;9.18;3.83;;;7.00;67.00;;;1.18;100.00;95809.94;4968749;28;20061;-52
2024/03/06 09:30:03;;;;;;;9.73;3.85;;;7.00;67.00;;;1.11;100.00;95812.56;4972618;28;20501;-55
2024/03/06 09:32:30;;;;;;;6.22;3.58;;;7.00;67.00;;;1.10;100.00;95814.38;4971327;28;20026;-54
2024/03/06 09:34:56;;;;;;;5.97;3.10;;;7.00;67.00;;;1.14;100.00;95814.78;4972483;28;20029;-53
2024/03/06 09:37:22;;;;;;;6.40;3.20;;;7.00;67.00;;;1.13;100.00;95813.16;4971090;28;20034;-55
2024/03/06 09:39:48;;;;;;;6.20;2.97;;;6.90;66.90;;;1.11;100.00;95815.97;4972138;28;20028;-56
2024/03/06 09:42:15;;;;;;;6.40;3.55;;;7.00;67.00;;;1.20;100.00;95819.22;4972280;28;20056;-52
2024/03/06 09:44:42;;;;;;;7.05;3.13;;;7.00;67.00;;;1.26;100.00;95817.63;4971120;28;20054;-53
2024/03/06 09:47:18;;;;;;;12.77;3.60;;;7.10;67.10;;;1.30;100.00;95813.59;4971496;28;20026;-51
2024/03/06 09:49:44;;;;;;;11.57;3.25;;;7.20;67.20;;;1.33;100.00;95814.00;4971149;28;20432;-53
2024/03/06 09:52:10;;;;;;;5.63;3.20;;;7.20;67.00;;;1.31;100.00;95818.63;4970760;28;20041;-53
2024/03/06 09:54:40;;;;;;;6.05;3.45;;;7.20;66.90;;;1.35;100.00;95817.22;4971859;28;20092;-54
2024/03/06 09:57:06;;;;;;;52.13;5.68;;;7.20;66.90;;;1.36;100.00;95818.03;4969539;28;20117;-50
2024/03/06 09:59:32;;;;;;;8.70;3.13;;;7.20;66.90;;;1.39;100.00;95815.81;4971726;28;20022;-51
2024/03/06 10:02:06;;;;;;;26.40;3.95;;;7.20;66.80;;;1.44;100.00;95817.00;4971291;28;20085;-51
2024/03/06 10:04:37;;;;;;;4.55;2.88;;;7.30;66.80;;;1.49;100.00;95820.66;4955048;28;20541;-54
2024/03/06 10:07:03;;;;;;;12.35;3.38;;;7.30;66.80;;;1.53;100.00;95819.22;4970784;28;20133;-52
2024/03/06 10:09:33;;;;;;;6.35;2.90;;;7.40;66.90;;;1.51;100.00;95821.28;4970990;28;20026;-50
2024/03/06 10:11:58;;;;;;;5.93;3.00;;;7.40;66.80;;;1.53;100.00;95818.44;4971626;28;20034;-53
2024/03/06 10:14:25;;;;;;;6.60;3.22;;;7.40;66.70;;;1.55;100.00;95821.69;4970676;28;20078;-50
2024/03/06 10:17:01;;;;;;;6.45;3.33;;;7.50;66.70;;;1.58;100.00;95827.31;4971458;28;20044;-51
2024/03/06 10:19:30;;;;;;;11.10;3.90;;;7.50;66.70;;;1.60;100.00;95816.63;4969782;28;20029;-51
2024/03/06 10:21:59;;;;;;;5.30;3.50;;;7.50;66.70;;;1.59;100.00;95820.25;4970449;28;20045;-52